createdAt,value
2019-04-29T00:02:37.761Z,56.93
2019-04-29T00:05:11.105Z,60.10
2019-04-29T00:07:44.313Z,61.92
2019-04-29T00:10:21.821Z,62.42
2019-04-29T00:12:54.780Z,52.77
2019-04-29T00:16:04.651Z,53.84
2019-04-29T00:19:02.469Z,57.89
2019-04-29T00:21:35.645Z,60.66
2019-04-29T00:24:08.697Z,64.13
2019-04-29T00:26:41.713Z,58.28
2019-04-29T00:29:15.398Z,53.58
2019-04-29T00:31:48.510Z,56.95
2019-04-29T00:34:21.441Z,59.76
2019-04-29T00:37:07.766Z,62.92
2019-04-29T00:40:17.640Z,60.93
2019-04-29T00:43:00.620Z,52.14
2019-04-29T00:45:33.703Z,56.53
2019-04-29T00:48:06.705Z,60.77
2019-04-29T00:50:39.678Z,63.54
2019-04-29T00:53:12.858Z,58.93
2019-04-29T00:55:55.011Z,54.30
2019-04-29T00:58:28.085Z,57.45
2019-04-29T01:01:01.100Z,60.89
2019-04-29T01:03:34.267Z,63.32
2019-04-29T01:06:07.232Z,61.19
2019-04-29T01:08:40.369Z,53.13
2019-04-29T01:11:13.203Z,54.71
2019-04-29T01:13:46.026Z,58.27
2019-04-29T01:16:20.374Z,60.69
2019-04-29T01:18:53.230Z,62.33
2019-04-29T01:21:27.062Z,62.37
2019-04-29T01:23:59.865Z,53.41
2019-04-29T01:27:06.545Z,51.79
2019-04-29T01:29:39.618Z,55.74
2019-04-29T01:32:12.656Z,59.26
2019-04-29T01:34:53.781Z,60.91
2019-04-29T01:37:40.768Z,63.35
2019-04-29T01:40:51.361Z,60.14
2019-04-29T01:43:25.997Z,54.72
2019-04-29T01:45:58.893Z,57.30
2019-04-29T01:48:31.770Z,60.92
2019-04-29T01:51:04.685Z,64.54
2019-04-29T01:53:37.503Z,58.69
2019-04-29T01:56:10.365Z,54.22
2019-04-29T01:58:43.257Z,57.27
2019-04-29T02:01:16.259Z,60.36
2019-04-29T02:03:49.171Z,62.54
2019-04-29T02:06:22.081Z,62.48
2019-04-29T02:08:55.991Z,52.76
2019-04-29T02:11:29.047Z,53.84
2019-04-29T02:14:01.932Z,58.06
2019-04-29T02:16:34.774Z,60.34
2019-04-29T02:19:07.810Z,63.56
2019-04-29T02:21:42.374Z,60.13
2019-04-29T02:24:17.743Z,54.39
2019-04-29T02:26:51.603Z,57.15
2019-04-29T02:29:24.522Z,60.52
2019-04-29T02:31:57.461Z,63.44
2019-04-29T02:34:30.495Z,61.13
2019-04-29T02:37:05.126Z,54.70
2019-04-29T02:39:43.407Z,58.42
2019-04-29T02:42:41.330Z,61.68
2019-04-29T02:45:20.132Z,64.22
2019-04-29T02:47:53.020Z,57.52
2019-04-29T02:50:26.044Z,52.99
2019-04-29T02:52:59.044Z,56.51
2019-04-29T02:55:36.650Z,60.06
2019-04-29T02:58:28.435Z,63.00
2019-04-29T03:01:09.002Z,58.64
2019-04-29T03:03:59.551Z,54.81
2019-04-29T03:06:32.400Z,58.86
2019-04-29T03:09:07.005Z,62.47
2019-04-29T03:11:40.030Z,60.08
2019-04-29T03:14:12.854Z,54.51
2019-04-29T03:16:45.988Z,57.54
2019-04-29T03:19:24.091Z,61.26
2019-04-29T03:21:58.698Z,64.11
2019-04-29T03:24:31.744Z,59.08
2019-04-29T03:27:04.756Z,54.84
2019-04-29T03:29:37.800Z,58.35
2019-04-29T03:32:10.707Z,61.43
2019-04-29T03:34:43.869Z,63.72
2019-04-29T03:37:16.774Z,56.16
2019-04-29T03:39:49.761Z,53.89
2019-04-29T03:42:22.677Z,57.53
2019-04-29T03:44:55.563Z,60.01
2019-04-29T03:47:28.577Z,63.79
2019-04-29T03:50:01.529Z,57.63
2019-04-29T03:52:34.567Z,53.60
2019-04-29T03:55:07.769Z,57.23
2019-04-29T03:57:40.642Z,60.56
2019-04-29T04:00:15.317Z,63.34
2019-04-29T04:02:55.839Z,58.82
2019-04-29T04:05:47.544Z,54.03
2019-04-29T04:08:39.322Z,58.15
2019-04-29T04:11:12.418Z,61.55
2019-04-29T04:13:45.463Z,63.69
2019-04-29T04:16:36.054Z,55.97
2019-04-29T04:19:10.123Z,54.23
2019-04-29T04:21:42.968Z,58.02
2019-04-29T04:24:15.809Z,60.61
2019-04-29T04:26:48.741Z,63.51
2019-04-29T04:29:21.982Z,56.67
2019-04-29T04:31:54.842Z,52.57
2019-04-29T04:34:27.688Z,55.93
2019-04-29T04:37:00.647Z,59.79
2019-04-29T04:39:35.319Z,62.43
2019-04-29T04:42:08.340Z,60.40
2019-04-29T04:44:50.390Z,54.23
2019-04-29T04:47:23.393Z,56.94
2019-04-29T04:49:56.352Z,60.67
2019-04-29T04:52:30.782Z,62.92
2019-04-29T04:55:03.819Z,59.51
2019-04-29T04:57:37.614Z,53.60
2019-04-29T05:00:19.783Z,56.77
2019-04-29T05:02:51.064Z,60.39
2019-04-29T05:05:24.079Z,62.73
2019-04-29T05:07:56.958Z,60.50
2019-04-29T05:10:29.841Z,54.17
2019-04-29T05:13:03.031Z,57.30
2019-04-29T05:15:36.152Z,60.28
2019-04-29T05:18:10.082Z,62.82
2019-04-29T05:20:44.152Z,61.56
2019-04-29T05:23:17.142Z,52.07
2019-04-29T05:25:50.052Z,52.57
2019-04-29T05:28:23.066Z,56.21
2019-04-29T05:30:55.903Z,59.26
2019-04-29T05:33:29.052Z,61.63
2019-04-29T05:36:16.299Z,61.91
2019-04-29T05:39:07.943Z,53.52
2019-04-29T05:41:40.877Z,55.41
2019-04-29T05:44:26.324Z,58.45
2019-04-29T05:47:06.346Z,61.00
2019-04-29T05:49:46.771Z,62.52
2019-04-29T05:52:30.327Z,60.08
2019-04-29T05:55:04.697Z,53.14
2019-04-29T05:57:37.596Z,55.37
2019-04-29T06:00:10.875Z,58.19
2019-04-29T06:02:45.231Z,61.42
2019-04-29T06:05:18.193Z,62.98
2019-04-29T06:07:51.719Z,61.48
2019-04-29T06:10:24.873Z,52.57
2019-04-29T06:12:57.881Z,54.03
2019-04-29T06:15:33.540Z,57.13
2019-04-29T06:18:06.681Z,59.52
2019-04-29T06:20:39.749Z,61.47
2019-04-29T06:23:12.758Z,63.02
2019-04-29T06:25:46.095Z,61.00
2019-04-29T06:28:21.792Z,51.89
2019-04-29T06:30:54.134Z,54.06
2019-04-29T06:33:28.978Z,56.89
2019-04-29T06:36:02.257Z,59.80
2019-04-29T06:38:35.313Z,61.64
2019-04-29T06:41:09.753Z,63.45
2019-04-29T06:43:44.780Z,59.31
2019-04-29T06:46:17.770Z,53.89
2019-04-29T06:48:50.787Z,57.00
2019-04-29T06:51:23.694Z,59.47
2019-04-29T06:53:57.777Z,61.55
2019-04-29T06:56:30.778Z,64.06
2019-04-29T06:59:07.510Z,61.02
2019-04-29T07:01:38.765Z,52.28
2019-04-29T07:04:11.724Z,54.23
2019-04-29T07:06:56.675Z,57.39
2019-04-29T07:09:19.266Z,59.66
2019-04-29T07:11:52.168Z,61.86
2019-04-29T07:14:28.310Z,63.32
2019-04-29T07:17:00.836Z,61.94
2019-04-29T07:19:34.365Z,53.26
2019-04-29T07:22:07.268Z,54.84
2019-04-29T07:24:40.165Z,57.38
2019-04-29T07:27:13.061Z,59.99
2019-04-29T07:29:45.945Z,61.96
2019-04-29T07:32:18.760Z,61.68
2019-04-29T07:34:51.704Z,53.52
2019-04-29T07:37:24.664Z,53.03
2019-04-29T07:39:57.505Z,55.63
2019-04-29T07:42:33.233Z,58.42
2019-04-29T07:45:43.388Z,59.76
2019-04-29T07:48:06.472Z,61.96
2019-04-29T07:50:39.993Z,63.02
2019-04-29T07:53:12.858Z,62.17
2019-04-29T07:55:45.918Z,52.58
2019-04-29T07:58:23.080Z,51.78
2019-04-29T08:01:01.028Z,55.60
2019-04-29T08:03:34.018Z,58.16
2019-04-29T08:06:07.284Z,59.85
2019-04-29T08:08:53.913Z,61.69
2019-04-29T08:11:15.184Z,64.52
2019-04-29T08:13:51.132Z,60.14
2019-04-29T08:16:24.097Z,54.10
2019-04-29T08:18:57.076Z,55.77
2019-04-29T08:21:30.013Z,58.28
2019-04-29T08:24:02.961Z,60.05
2019-04-29T08:26:38.256Z,61.72
2019-04-29T08:29:10.658Z,63.04
2019-04-29T08:31:43.616Z,62.20
2019-04-29T08:34:18.686Z,51.77
2019-04-29T08:36:51.167Z,50.75
2019-04-29T08:39:25.152Z,53.75
2019-04-29T08:42:03.725Z,56.03
2019-04-29T08:44:54.721Z,58.53
2019-04-29T08:47:31.611Z,60.69
2019-04-29T08:50:05.289Z,62.23
2019-04-29T08:52:38.694Z,63.96
2019-04-29T08:55:11.823Z,61.71
2019-04-29T08:57:44.879Z,52.03
2019-04-29T09:00:19.445Z,51.80
2019-04-29T09:02:52.644Z,54.22
2019-04-29T09:05:28.351Z,57.15
2019-04-29T09:08:01.329Z,58.84
2019-04-29T09:10:36.815Z,60.71
2019-04-29T09:13:09.037Z,61.39
2019-04-29T09:15:47.512Z,62.78
2019-04-29T09:18:20.516Z,60.69
2019-04-29T09:20:54.616Z,51.76
2019-04-29T09:23:30.066Z,53.66
2019-04-29T09:26:20.275Z,56.97
2019-04-29T09:28:53.208Z,58.60
2019-04-29T09:31:26.285Z,60.20
2019-04-29T09:34:06.319Z,60.79
2019-04-29T09:36:34.052Z,61.52
2019-04-29T09:39:07.591Z,61.99
2019-04-29T09:41:49.375Z,62.52
2019-04-29T09:44:44.528Z,55.56
2019-04-29T09:47:14.881Z,51.00
2019-04-29T09:49:47.836Z,53.27
2019-04-29T09:52:20.791Z,54.38
2019-04-29T09:54:53.872Z,56.50
2019-04-29T09:57:26.907Z,56.77
2019-04-29T10:00:11.674Z,57.27
2019-04-29T10:02:49.791Z,56.40
2019-04-29T10:05:50.611Z,56.57
2019-04-29T10:08:23.552Z,56.81
2019-04-29T10:10:57.484Z,56.46
2019-04-29T10:13:30.372Z,57.49
2019-04-29T10:16:31.696Z,56.08
2019-04-29T10:19:27.583Z,55.50
2019-04-29T10:22:00.652Z,55.93
2019-04-29T10:24:33.654Z,55.84
2019-04-29T10:27:07.887Z,55.53
2019-04-29T10:29:42.450Z,54.77
2019-04-29T10:32:15.354Z,54.21
2019-04-29T10:34:48.288Z,55.03
2019-04-29T10:37:23.221Z,55.36
2019-04-29T10:40:11.093Z,53.02
2019-04-29T10:42:47.353Z,53.66
2019-04-29T10:45:34.471Z,53.75
2019-04-29T10:48:29.789Z,54.33
2019-04-29T10:51:04.082Z,52.17
2019-04-29T10:53:37.106Z,53.38
2019-04-29T10:56:10.151Z,52.00
2019-04-29T10:58:43.339Z,50.41
2019-04-29T11:02:26.136Z,50.59
2019-04-29T11:05:11.893Z,49.21
2019-04-29T11:07:44.409Z,49.00
2019-04-29T11:10:25.918Z,49.49
2019-04-29T11:12:59.390Z,50.32
2019-04-29T11:15:35.522Z,50.72
2019-04-29T11:18:08.673Z,48.88
2019-04-29T11:20:44.538Z,48.68
2019-04-29T11:23:29.138Z,47.83
2019-04-29T11:26:20.582Z,48.17
2019-04-29T11:28:54.871Z,48.50
2019-04-29T11:31:27.863Z,48.99
2019-04-29T11:34:33.407Z,48.88
2019-04-29T11:37:08.322Z,50.06
2019-04-29T11:39:41.234Z,49.40
2019-04-29T11:42:14.934Z,49.42
2019-04-29T11:44:48.045Z,49.48
2019-04-29T11:47:24.895Z,48.33
2019-04-29T11:50:07.593Z,46.77
2019-04-29T11:52:40.807Z,47.47
2019-04-29T11:55:18.315Z,47.19
2019-04-29T11:57:53.488Z,46.92
2019-04-29T12:00:52.088Z,46.38
2019-04-29T12:03:29.061Z,46.80
2019-04-29T12:06:03.701Z,46.12
2019-04-29T12:08:38.398Z,46.16
2019-04-29T12:11:13.443Z,46.20
2019-04-29T12:14:05.157Z,46.27
2019-04-29T12:16:41.928Z,47.49
2019-04-29T12:19:21.359Z,47.20
2019-04-29T12:21:52.475Z,47.26
2019-04-29T12:24:25.291Z,47.86
2019-04-29T12:26:58.274Z,47.27
2019-04-29T12:29:31.161Z,47.16
2019-04-29T12:32:27.603Z,47.53
2019-04-29T12:35:10.637Z,48.22
2019-04-29T12:38:11.025Z,48.69
2019-04-29T12:40:59.555Z,49.02
2019-04-29T12:43:59.160Z,48.19
2019-04-29T12:46:42.099Z,48.20
2019-04-29T12:49:15.452Z,49.15
2019-04-29T12:51:48.727Z,49.21
2019-04-29T12:54:21.906Z,49.25
2019-04-29T12:56:55.897Z,49.19
2019-04-29T12:59:30.486Z,47.25
2019-04-29T13:02:24.450Z,47.87
2019-04-29T13:05:19.393Z,45.36
2019-04-29T13:08:04.201Z,46.89
2019-04-29T13:10:49.113Z,47.34
2019-04-29T13:13:22.197Z,46.08
2019-04-29T13:16:12.690Z,46.81
2019-04-29T13:19:11.505Z,46.26
2019-04-29T13:21:39.699Z,44.53
2019-04-29T13:24:22.443Z,44.53
2019-04-29T13:26:47.369Z,44.79
2019-04-29T13:29:31.858Z,44.03
2019-04-29T13:31:54.871Z,43.78
2019-04-29T13:34:35.429Z,43.62
2019-04-29T13:37:18.429Z,44.49
2019-04-29T13:39:42.942Z,43.64
2019-04-29T13:42:16.117Z,43.98
2019-04-29T13:45:05.131Z,44.43
2019-04-29T13:47:40.994Z,44.33
2019-04-29T13:50:38.013Z,44.39
2019-04-29T13:52:57.196Z,44.86
2019-04-29T13:55:47.865Z,44.43
2019-04-29T13:58:05.978Z,44.54
2019-04-29T14:00:49.283Z,44.29
2019-04-29T14:03:27.434Z,44.11
2019-04-29T14:06:04.170Z,44.21
2019-04-29T14:08:35.197Z,44.24
2019-04-29T14:11:08.152Z,43.72
2019-04-29T14:13:43.261Z,43.69
2019-04-29T14:16:19.123Z,43.68
2019-04-29T14:18:50.735Z,43.14
2019-04-29T14:21:25.827Z,43.28
2019-04-29T14:23:58.407Z,42.71
2019-04-29T14:26:31.280Z,43.55
2019-04-29T14:29:04.294Z,42.87
2019-04-29T14:31:37.167Z,42.03
2019-04-29T14:34:34.858Z,42.81
2019-04-29T14:37:25.342Z,42.52
2019-04-29T14:39:41.005Z,43.16
2019-04-29T14:42:32.808Z,42.21
2019-04-29T14:45:23.793Z,42.13
2019-04-29T14:48:17.755Z,42.19
2019-04-29T14:50:54.237Z,42.19
2019-04-29T14:53:26.312Z,42.85
2019-04-29T14:55:59.302Z,42.52
2019-04-29T14:58:32.522Z,42.66
2019-04-29T15:01:31.177Z,42.53
2019-04-29T15:04:18.000Z,42.48
2019-04-29T15:06:42.328Z,42.69
2019-04-29T15:09:17.689Z,42.18
2019-04-29T15:12:04.404Z,42.59
2019-04-29T15:14:47.611Z,42.06
2019-04-29T15:17:44.720Z,42.26
2019-04-29T15:20:30.381Z,42.73
2019-04-29T15:23:00.511Z,42.74
2019-04-29T15:25:33.413Z,42.88
2019-04-29T15:28:06.386Z,42.72
2019-04-29T15:30:39.395Z,43.28
2019-04-29T15:33:12.341Z,43.36
2019-04-29T15:35:45.818Z,42.69
2019-04-29T15:38:18.762Z,42.12
2019-04-29T15:40:51.592Z,41.59
2019-04-29T15:43:46.130Z,42.31
2019-04-29T15:45:59.030Z,42.77
2019-04-29T15:48:31.946Z,42.73
2019-04-29T15:51:09.305Z,42.94
2019-04-29T15:53:39.637Z,42.13
2019-04-29T15:56:27.573Z,41.97
2019-04-29T15:58:47.452Z,42.35
2019-04-29T16:01:27.118Z,42.35
2019-04-29T16:03:57.313Z,42.83
2019-04-29T16:07:07.745Z,42.36
2019-04-29T16:10:20.448Z,42.34
2019-04-29T16:12:53.051Z,42.58
2019-04-29T16:15:25.864Z,42.60
2019-04-29T16:17:58.793Z,42.71
2019-04-29T16:20:31.754Z,42.98
2019-04-29T16:23:04.674Z,42.74
2019-04-29T16:25:40.699Z,42.27
2019-04-29T16:28:12.094Z,42.32
2019-04-29T16:30:46.198Z,42.42
2019-04-29T16:33:19.064Z,41.48
2019-04-29T16:35:52.007Z,41.18
2019-04-29T16:38:25.090Z,41.32
2019-04-29T16:41:06.333Z,40.92
2019-04-29T16:43:41.695Z,41.29
2019-04-29T16:46:23.306Z,40.86
2019-04-29T16:49:00.933Z,40.91
2019-04-29T16:51:35.943Z,40.47
2019-04-29T16:54:20.526Z,40.21
2019-04-29T16:56:53.650Z,40.51
2019-04-29T16:59:28.348Z,39.86
2019-04-29T17:02:04.485Z,39.99
2019-04-29T17:04:39.378Z,39.87
2019-04-29T17:07:24.315Z,40.24
2019-04-29T17:10:19.211Z,40.57
2019-04-29T17:12:52.823Z,40.81
2019-04-29T17:15:31.119Z,41.18
2019-04-29T17:18:05.906Z,41.07
2019-04-29T17:20:40.677Z,41.22
2019-04-29T17:23:13.856Z,41.37
2019-04-29T17:25:52.289Z,41.48
2019-04-29T17:28:31.637Z,41.72
2019-04-29T17:31:23.858Z,41.86
2019-04-29T17:34:05.207Z,42.26
2019-04-29T17:36:39.773Z,42.42
2019-04-29T17:39:13.062Z,42.67
2019-04-29T17:41:48.206Z,42.78
2019-04-29T17:44:40.096Z,42.38
2019-04-29T17:47:37.610Z,42.22
2019-04-29T17:50:30.764Z,42.44
2019-04-29T17:53:05.170Z,42.52
2019-04-29T17:55:45.352Z,42.45
2019-04-29T17:58:25.874Z,42.76
2019-04-29T18:01:17.826Z,42.97
2019-04-29T18:04:11.725Z,43.13
2019-04-29T18:06:51.651Z,43.44
2019-04-29T18:09:47.538Z,43.71
2019-04-29T18:12:24.734Z,43.98
2019-04-29T18:14:57.632Z,44.37
2019-04-29T18:17:36.099Z,44.81
2019-04-29T18:20:33.082Z,45.21
2019-04-29T18:23:21.743Z,45.53
2019-04-29T18:26:16.637Z,45.76
2019-04-29T18:28:49.989Z,46.16
2019-04-29T18:31:26.485Z,46.20
2019-04-29T18:34:00.206Z,46.58
2019-04-29T18:36:35.184Z,46.90
2019-04-29T18:39:11.292Z,47.31
2019-04-29T18:41:44.802Z,47.64
2019-04-29T18:44:19.554Z,47.97
2019-04-29T18:46:53.878Z,48.17
2019-04-29T18:49:28.124Z,48.33
2019-04-29T18:52:02.284Z,49.14
2019-04-29T18:54:36.680Z,49.29
2019-04-29T18:57:09.809Z,49.24
2019-04-29T18:59:42.767Z,49.52
2019-04-29T19:02:15.775Z,49.78
2019-04-29T19:04:56.436Z,50.17
2019-04-29T19:07:31.932Z,49.96
2019-04-29T19:10:09.043Z,50.08
2019-04-29T19:12:39.410Z,49.80
2019-04-29T19:15:12.977Z,50.00
2019-04-29T19:17:58.293Z,50.07
2019-04-29T19:20:20.811Z,50.00
2019-04-29T19:23:05.423Z,50.05
2019-04-29T19:25:28.421Z,50.01
2019-04-29T19:28:11.777Z,50.15
2019-04-29T19:30:37.078Z,50.03
2019-04-29T19:33:12.214Z,49.98
2019-04-29T19:35:45.288Z,50.04
2019-04-29T19:38:18.271Z,50.13
2019-04-29T19:40:54.796Z,50.12
2019-04-29T19:43:28.572Z,50.01
2019-04-29T19:46:01.910Z,50.78
2019-04-29T19:48:36.672Z,50.23
2019-04-29T19:51:18.027Z,49.93
2019-04-29T19:53:49.443Z,49.36
2019-04-29T19:56:24.375Z,49.44
2019-04-29T19:58:57.996Z,48.98
2019-04-29T20:01:32.287Z,49.29
2019-04-29T20:04:35.568Z,49.27
2019-04-29T20:07:10.495Z,49.24
2019-04-29T20:09:47.460Z,49.22
2019-04-29T20:12:19.540Z,49.21
2019-04-29T20:14:58.678Z,49.17
2019-04-29T20:17:59.236Z,48.94
2019-04-29T20:20:40.609Z,47.51
2019-04-29T20:23:24.750Z,47.71
2019-04-29T20:25:52.925Z,48.02
2019-04-29T20:28:26.424Z,47.23
2019-04-29T20:31:15.296Z,47.03
2019-04-29T20:33:35.909Z,45.82
2019-04-29T20:36:10.911Z,46.51
2019-04-29T20:38:45.481Z,46.10
2019-04-29T20:41:36.830Z,46.48
2019-04-29T20:43:56.258Z,46.43
2019-04-29T20:46:44.563Z,46.14
2019-04-29T20:49:06.338Z,46.09
2019-04-29T20:51:49.673Z,46.01
2019-04-29T20:54:20.592Z,46.05
2019-04-29T20:57:02.787Z,46.15
2019-04-29T20:59:35.875Z,46.20
2019-04-29T21:02:12.552Z,46.37
2019-04-29T21:04:47.315Z,46.46
2019-04-29T21:07:23.946Z,46.33
2019-04-29T21:09:55.911Z,46.46
2019-04-29T21:12:50.609Z,46.57
2019-04-29T21:15:36.129Z,46.62
2019-04-29T21:18:10.284Z,46.71
2019-04-29T21:20:45.076Z,46.80
2019-04-29T21:23:18.980Z,46.86
2019-04-29T21:25:52.220Z,46.87
2019-04-29T21:28:25.125Z,47.05
2019-04-29T21:30:58.083Z,46.87
2019-04-29T21:33:31.326Z,46.83
2019-04-29T21:36:15.485Z,47.01
2019-04-29T21:39:01.855Z,46.98
2019-04-29T21:41:41.635Z,47.01
2019-04-29T21:44:14.439Z,46.90
2019-04-29T21:46:47.641Z,46.58
2019-04-29T21:49:20.519Z,46.85
2019-04-29T21:51:55.391Z,46.83
2019-04-29T21:54:28.025Z,46.55
2019-04-29T21:57:01.163Z,46.41
2019-04-29T21:59:35.660Z,46.72
2019-04-29T22:02:11.397Z,46.49
2019-04-29T22:04:44.979Z,46.69
2019-04-29T22:07:19.504Z,46.70
2019-04-29T22:09:52.462Z,46.66
2019-04-29T22:12:25.366Z,46.47
2019-04-29T22:14:59.498Z,46.62
2019-04-29T22:17:33.843Z,46.71
2019-04-29T22:20:10.978Z,46.79
2019-04-29T22:22:45.267Z,46.78
2019-04-29T22:25:18.763Z,46.83
2019-04-29T22:27:51.780Z,47.08
2019-04-29T22:30:26.466Z,46.99
2019-04-29T22:32:59.969Z,47.04
2019-04-29T22:35:37.258Z,47.32
2019-04-29T22:38:12.638Z,47.42
2019-04-29T22:40:45.036Z,47.51
2019-04-29T22:43:25.328Z,47.63
2019-04-29T22:45:58.391Z,47.81
2019-04-29T22:48:31.336Z,47.86
2019-04-29T22:51:05.728Z,48.10
2019-04-29T22:53:40.057Z,48.02
2019-04-29T22:56:15.804Z,48.22
2019-04-29T22:58:48.270Z,48.34
2019-04-29T23:01:21.373Z,48.57
2019-04-29T23:03:55.372Z,48.62
2019-04-29T23:06:28.549Z,48.94
2019-04-29T23:09:01.459Z,49.06
2019-04-29T23:11:39.351Z,49.35
2019-04-29T23:14:10.559Z,49.55
2019-04-29T23:16:45.463Z,49.75
2019-04-29T23:19:19.557Z,49.84
2019-04-29T23:22:10.621Z,50.12
2019-04-29T23:24:55.759Z,50.18
2019-04-29T23:27:28.927Z,50.25
2019-04-29T23:30:01.782Z,50.36
2019-04-29T23:32:35.240Z,50.42
2019-04-29T23:35:10.017Z,50.38
2019-04-29T23:37:42.964Z,50.53
2019-04-29T23:40:15.905Z,50.61
2019-04-29T23:42:49.291Z,50.57
2019-04-29T23:45:22.442Z,50.64
2019-04-29T23:47:55.609Z,50.80
2019-04-29T23:50:28.452Z,51.03
2019-04-29T23:53:01.340Z,50.91
2019-04-29T23:55:35.611Z,51.00
2019-04-29T23:58:17.067Z,51.01
